sensor_id;sensor_type;location;lat;lon;timestamp;P1;durP1;ratioP1;P2;durP2;ratioP2
68803;SDS011;55787;52.678;13.314;2023-09-08T00:02:25;14.15;;;7.68;;
68803;SDS011;55787;52.678;13.314;2023-09-08T00:04:52;15.68;;;8.00;;
68803;SDS011;55787;52.678;13.314;2023-09-08T00:07:19;13.93;;;8.23;;
68803;SDS011;55787;52.678;13.314;2023-09-08T00:09:46;14.25;;;8.13;;
68803;SDS011;55787;52.678;13.314;2023-09-08T00:12:13;15.88;;;8.95;;
68803;SDS011;55787;52.678;13.314;2023-09-08T00:14:40;13.95;;;7.97;;
68803;SDS011;55787;52.678;13.314;2023-09-08T00:17:06;15.40;;;9.18;;
68803;SDS011;55787;52.678;13.314;2023-09-08T00:36:08;15.50;;;8.95;;
68803;SDS011;55787;52.678;13.314;2023-09-08T00:38:35;15.80;;;9.68;;
68803;SDS011;55787;52.678;13.314;2023-09-08T00:41:04;17.23;;;8.73;;
68803;SDS011;55787;52.678;13.314;2023-09-08T00:43:31;15.88;;;8.70;;
68803;SDS011;55787;52.678;13.314;2023-09-08T00:45:58;19.67;;;9.23;;
68803;SDS011;55787;52.678;13.314;2023-09-08T00:48:25;17.25;;;9.73;;
68803;SDS011;55787;52.678;13.314;2023-09-08T00:50:52;15.55;;;9.70;;
68803;SDS011;55787;52.678;13.314;2023-09-08T00:53:19;15.10;;;9.02;;
68803;SDS011;55787;52.678;13.314;2023-09-08T00:55:47;16.13;;;9.57;;
68803;SDS011;55787;52.678;13.314;2023-09-08T00:58:14;15.47;;;9.13;;
68803;SDS011;55787;52.678;13.314;2023-09-08T01:00:41;16.15;;;9.52;;
68803;SDS011;55787;52.678;13.314;2023-09-08T01:03:07;16.83;;;9.30;;
68803;SDS011;55787;52.678;13.314;2023-09-08T01:05:34;15.90;;;9.88;;
68803;SDS011;55787;52.678;13.314;2023-09-08T01:08:01;17.15;;;10.38;;
68803;SDS011;55787;52.678;13.314;2023-09-08T01:10:29;16.47;;;9.93;;
68803;SDS011;55787;52.678;13.314;2023-09-08T01:12:56;16.30;;;9.75;;
68803;SDS011;55787;52.678;13.314;2023-09-08T01:15:23;18.17;;;10.23;;
68803;SDS011;55787;52.678;13.314;2023-09-08T01:17:49;17.27;;;10.77;;
68803;SDS011;55787;52.678;13.314;2023-09-08T01:20:20;15.85;;;10.18;;
68803;SDS011;55787;52.678;13.314;2023-09-08T01:25:29;19.40;;;10.80;;
68803;SDS011;55787;52.678;13.314;2023-09-08T01:27:58;18.60;;;10.45;;
68803;SDS011;55787;52.678;13.314;2023-09-08T01:30:27;15.50;;;9.95;;
68803;SDS011;55787;52.678;13.314;2023-09-08T01:32:55;15.60;;;9.85;;
68803;SDS011;55787;52.678;13.314;2023-09-08T01:35:22;18.23;;;10.80;;
68803;SDS011;55787;52.678;13.314;2023-09-08T01:37:50;17.15;;;10.27;;
68803;SDS011;55787;52.678;13.314;2023-09-08T01:40:16;16.85;;;10.35;;
68803;SDS011;55787;52.678;13.314;2023-09-08T01:42:45;17.35;;;9.63;;
68803;SDS011;55787;52.678;13.314;2023-09-08T01:45:11;16.27;;;9.98;;
68803;SDS011;55787;52.678;13.314;2023-09-08T01:47:38;16.03;;;9.77;;
68803;SDS011;55787;52.678;13.314;2023-09-08T01:50:05;19.20;;;10.90;;
68803;SDS011;55787;52.678;13.314;2023-09-08T01:52:32;17.08;;;10.73;;
68803;SDS011;55787;52.678;13.314;2023-09-08T01:54:59;18.10;;;10.50;;
68803;SDS011;55787;52.678;13.314;2023-09-08T01:57:25;17.05;;;10.82;;
68803;SDS011;55787;52.678;13.314;2023-09-08T01:59:52;17.23;;;10.77;;
68803;SDS011;55787;52.678;13.314;2023-09-08T02:02:18;17.73;;;10.73;;
68803;SDS011;55787;52.678;13.314;2023-09-08T02:04:45;18.98;;;10.80;;
68803;SDS011;55787;52.678;13.314;2023-09-08T02:07:12;17.08;;;10.50;;
68803;SDS011;55787;52.678;13.314;2023-09-08T02:09:38;18.88;;;10.95;;
68803;SDS011;55787;52.678;13.314;2023-09-08T02:12:05;17.63;;;10.23;;
68803;SDS011;55787;52.678;13.314;2023-09-08T02:14:32;17.90;;;10.55;;
68803;SDS011;55787;52.678;13.314;2023-09-08T02:16:58;18.00;;;10.80;;
68803;SDS011;55787;52.678;13.314;2023-09-08T02:19:25;20.10;;;10.10;;
68803;SDS011;55787;52.678;13.314;2023-09-08T02:21:52;17.20;;;10.13;;
68803;SDS011;55787;52.678;13.314;2023-09-08T02:24:19;17.03;;;10.13;;
68803;SDS011;55787;52.678;13.314;2023-09-08T02:26:45;18.60;;;10.52;;
68803;SDS011;55787;52.678;13.314;2023-09-08T02:29:12;17.75;;;11.00;;
68803;SDS011;55787;52.678;13.314;2023-09-08T02:31:39;18.98;;;10.35;;
68803;SDS011;55787;52.678;13.314;2023-09-08T02:34:06;19.00;;;10.70;;
68803;SDS011;55787;52.678;13.314;2023-09-08T02:36:32;19.00;;;11.00;;
68803;SDS011;55787;52.678;13.314;2023-09-08T02:38:59;17.67;;;11.00;;
68803;SDS011;55787;52.678;13.314;2023-09-08T02:41:25;18.60;;;11.15;;
68803;SDS011;55787;52.678;13.314;2023-09-08T02:43:52;17.45;;;10.85;;
68803;SDS011;55787;52.678;13.314;2023-09-08T02:46:18;16.88;;;10.85;;
68803;SDS011;55787;52.678;13.314;2023-09-08T02:48:45;20.23;;;12.07;;
68803;SDS011;55787;52.678;13.314;2023-09-08T02:51:12;17.85;;;10.63;;
68803;SDS011;55787;52.678;13.314;2023-09-08T02:53:38;20.17;;;12.38;;
68803;SDS011;55787;52.678;13.314;2023-09-08T02:56:05;18.85;;;10.95;;
68803;SDS011;55787;52.678;13.314;2023-09-08T02:58:32;21.02;;;11.95;;
68803;SDS011;55787;52.678;13.314;2023-09-08T03:01:14;20.23;;;11.70;;
68803;SDS011;55787;52.678;13.314;2023-09-08T03:03:42;18.77;;;11.35;;
68803;SDS011;55787;52.678;13.314;2023-09-08T03:06:09;18.35;;;11.38;;
68803;SDS011;55787;52.678;13.314;2023-09-08T03:08:36;19.35;;;11.60;;
68803;SDS011;55787;52.678;13.314;2023-09-08T03:11:03;18.67;;;12.00;;
68803;SDS011;55787;52.678;13.314;2023-09-08T03:13:32;19.03;;;11.37;;
68803;SDS011;55787;52.678;13.314;2023-09-08T03:16:03;18.38;;;11.43;;
68803;SDS011;55787;52.678;13.314;2023-09-08T03:18:32;20.27;;;11.55;;
68803;SDS011;55787;52.678;13.314;2023-09-08T03:20:59;20.25;;;12.07;;
68803;SDS011;55787;52.678;13.314;2023-09-08T03:23:38;22.65;;;12.40;;
68803;SDS011;55787;52.678;13.314;2023-09-08T03:26:05;19.03;;;11.40;;
68803;SDS011;55787;52.678;13.314;2023-09-08T03:28:33;18.75;;;11.27;;
68803;SDS011;55787;52.678;13.314;2023-09-08T03:31:01;20.42;;;12.27;;
68803;SDS011;55787;52.678;13.314;2023-09-08T03:33:28;19.23;;;11.60;;
68803;SDS011;55787;52.678;13.314;2023-09-08T03:35:55;19.75;;;12.40;;
68803;SDS011;55787;52.678;13.314;2023-09-08T03:38:22;18.67;;;11.93;;
68803;SDS011;55787;52.678;13.314;2023-09-08T03:40:49;19.30;;;11.85;;
68803;SDS011;55787;52.678;13.314;2023-09-08T03:43:15;19.35;;;12.35;;
68803;SDS011;55787;52.678;13.314;2023-09-08T03:45:42;21.77;;;12.02;;
68803;SDS011;55787;52.678;13.314;2023-09-08T03:48:09;18.88;;;11.57;;
68803;SDS011;55787;52.678;13.314;2023-09-08T03:50:36;21.63;;;11.83;;
68803;SDS011;55787;52.678;13.314;2023-09-08T03:53:02;22.35;;;12.90;;
68803;SDS011;55787;52.678;13.314;2023-09-08T03:55:29;21.45;;;12.10;;
68803;SDS011;55787;52.678;13.314;2023-09-08T03:57:56;19.58;;;12.23;;
68803;SDS011;55787;52.678;13.314;2023-09-08T04:00:23;19.33;;;11.98;;
68803;SDS011;55787;52.678;13.314;2023-09-08T04:02:50;19.63;;;11.63;;
68803;SDS011;55787;52.678;13.314;2023-09-08T04:05:17;20.77;;;12.23;;
68803;SDS011;55787;52.678;13.314;2023-09-08T04:07:47;21.17;;;12.27;;
68803;SDS011;55787;52.678;13.314;2023-09-08T04:10:13;20.15;;;11.80;;
68803;SDS011;55787;52.678;13.314;2023-09-08T04:12:40;19.88;;;12.07;;
68803;SDS011;55787;52.678;13.314;2023-09-08T04:15:08;19.37;;;11.63;;
68803;SDS011;55787;52.678;13.314;2023-09-08T04:17:35;20.55;;;12.15;;
68803;SDS011;55787;52.678;13.314;2023-09-08T04:20:03;18.48;;;12.27;;
68803;SDS011;55787;52.678;13.314;2023-09-08T04:22:34;18.77;;;11.82;;
68803;SDS011;55787;52.678;13.314;2023-09-08T04:25:01;21.80;;;12.20;;
68803;SDS011;55787;52.678;13.314;2023-09-08T04:27:28;21.17;;;12.30;;
68803;SDS011;55787;52.678;13.314;2023-09-08T04:29:54;20.25;;;12.52;;
68803;SDS011;55787;52.678;13.314;2023-09-08T04:32:21;22.73;;;12.50;;
68803;SDS011;55787;52.678;13.314;2023-09-08T04:34:48;22.58;;;13.45;;
68803;SDS011;55787;52.678;13.314;2023-09-08T04:37:15;19.92;;;13.18;;
68803;SDS011;55787;52.678;13.314;2023-09-08T04:39:42;20.17;;;12.73;;
68803;SDS011;55787;52.678;13.314;2023-09-08T04:42:10;20.77;;;12.43;;
68803;SDS011;55787;52.678;13.314;2023-09-08T04:44:36;20.15;;;12.43;;
68803;SDS011;55787;52.678;13.314;2023-09-08T04:47:03;23.88;;;12.68;;
68803;SDS011;55787;52.678;13.314;2023-09-08T04:49:30;22.27;;;12.55;;
68803;SDS011;55787;52.678;13.314;2023-09-08T04:51:57;22.13;;;13.00;;
68803;SDS011;55787;52.678;13.314;2023-09-08T04:54:23;23.73;;;13.20;;
68803;SDS011;55787;52.678;13.314;2023-09-08T04:56:53;22.90;;;13.70;;
68803;SDS011;55787;52.678;13.314;2023-09-08T04:59:37;19.88;;;13.07;;
68803;SDS011;55787;52.678;13.314;2023-09-08T05:02:05;21.23;;;13.45;;
68803;SDS011;55787;52.678;13.314;2023-09-08T05:04:32;23.10;;;13.70;;
68803;SDS011;55787;52.678;13.314;2023-09-08T05:06:58;22.92;;;14.10;;
68803;SDS011;55787;52.678;13.314;2023-09-08T05:09:25;24.08;;;14.90;;
68803;SDS011;55787;52.678;13.314;2023-09-08T05:11:51;22.02;;;13.48;;
68803;SDS011;55787;52.678;13.314;2023-09-08T05:14:18;23.45;;;14.00;;
68803;SDS011;55787;52.678;13.314;2023-09-08T05:16:44;23.37;;;13.77;;
68803;SDS011;55787;52.678;13.314;2023-09-08T05:19:12;23.63;;;14.02;;
68803;SDS011;55787;52.678;13.314;2023-09-08T05:21:39;25.38;;;14.43;;
68803;SDS011;55787;52.678;13.314;2023-09-08T05:24:06;21.27;;;13.02;;
68803;SDS011;55787;52.678;13.314;2023-09-08T05:26:35;21.88;;;13.15;;
68803;SDS011;55787;52.678;13.314;2023-09-08T05:29:03;19.57;;;12.53;;
68803;SDS011;55787;52.678;13.314;2023-09-08T05:31:30;20.20;;;11.52;;
68803;SDS011;55787;52.678;13.314;2023-09-08T05:33:57;21.33;;;12.45;;
68803;SDS011;55787;52.678;13.314;2023-09-08T05:36:23;20.73;;;12.27;;
68803;SDS011;55787;52.678;13.314;2023-09-08T05:38:50;20.20;;;12.07;;
68803;SDS011;55787;52.678;13.314;2023-09-08T05:41:17;20.77;;;12.10;;
68803;SDS011;55787;52.678;13.314;2023-09-08T05:43:44;19.33;;;11.63;;
68803;SDS011;55787;52.678;13.314;2023-09-08T05:46:10;19.35;;;11.95;;
68803;SDS011;55787;52.678;13.314;2023-09-08T05:48:37;17.60;;;11.32;;
68803;SDS011;55787;52.678;13.314;2023-09-08T05:51:04;19.98;;;11.50;;
68803;SDS011;55787;52.678;13.314;2023-09-08T05:53:32;19.07;;;11.47;;
68803;SDS011;55787;52.678;13.314;2023-09-08T05:55:59;18.25;;;10.23;;
68803;SDS011;55787;52.678;13.314;2023-09-08T05:58:26;19.13;;;11.50;;
68803;SDS011;55787;52.678;13.314;2023-09-08T06:00:53;17.85;;;10.98;;
68803;SDS011;55787;52.678;13.314;2023-09-08T06:03:20;19.20;;;10.00;;
68803;SDS011;55787;52.678;13.314;2023-09-08T06:05:47;20.37;;;9.57;;
68803;SDS011;55787;52.678;13.314;2023-09-08T06:08:14;16.77;;;10.27;;
68803;SDS011;55787;52.678;13.314;2023-09-08T06:10:40;20.33;;;10.07;;
68803;SDS011;55787;52.678;13.314;2023-09-08T06:13:07;16.95;;;9.65;;
68803;SDS011;55787;52.678;13.314;2023-09-08T06:15:34;17.52;;;10.35;;
68803;SDS011;55787;52.678;13.314;2023-09-08T06:18:00;18.20;;;9.63;;
68803;SDS011;55787;52.678;13.314;2023-09-08T06:20:27;15.10;;;9.40;;
68803;SDS011;55787;52.678;13.314;2023-09-08T06:22:54;15.43;;;9.63;;
68803;SDS011;55787;52.678;13.314;2023-09-08T06:25:20;15.60;;;10.25;;
68803;SDS011;55787;52.678;13.314;2023-09-08T06:27:47;17.05;;;9.65;;
68803;SDS011;55787;52.678;13.314;2023-09-08T06:30:14;16.90;;;9.40;;
68803;SDS011;55787;52.678;13.314;2023-09-08T06:32:42;17.02;;;10.10;;
68803;SDS011;55787;52.678;13.314;2023-09-08T06:35:09;15.90;;;10.15;;
68803;SDS011;55787;52.678;13.314;2023-09-08T06:37:36;16.95;;;9.48;;
68803;SDS011;55787;52.678;13.314;2023-09-08T06:40:03;17.40;;;9.32;;
68803;SDS011;55787;52.678;13.314;2023-09-08T06:42:31;15.87;;;9.10;;
68803;SDS011;55787;52.678;13.314;2023-09-08T06:44:58;16.88;;;9.13;;
68803;SDS011;55787;52.678;13.314;2023-09-08T06:47:25;15.77;;;9.23;;
68803;SDS011;55787;52.678;13.314;2023-09-08T06:49:52;13.60;;;8.70;;
68803;SDS011;55787;52.678;13.314;2023-09-08T06:52:19;14.93;;;9.80;;
68803;SDS011;55787;52.678;13.314;2023-09-08T06:54:46;17.10;;;9.20;;
68803;SDS011;55787;52.678;13.314;2023-09-08T06:57:13;15.18;;;8.88;;
68803;SDS011;55787;52.678;13.314;2023-09-08T06:59:40;14.50;;;8.73;;
68803;SDS011;55787;52.678;13.314;2023-09-08T07:02:07;15.00;;;9.15;;
68803;SDS011;55787;52.678;13.314;2023-09-08T07:04:34;16.73;;;9.38;;
68803;SDS011;55787;52.678;13.314;2023-09-08T07:07:01;16.53;;;8.60;;
68803;SDS011;55787;52.678;13.314;2023-09-08T07:09:36;13.23;;;8.60;;
68803;SDS011;55787;52.678;13.314;2023-09-08T07:12:03;13.93;;;9.43;;
68803;SDS011;55787;52.678;13.314;2023-09-08T07:14:31;13.63;;;8.70;;
68803;SDS011;55787;52.678;13.314;2023-09-08T07:16:58;15.32;;;8.65;;
68803;SDS011;55787;52.678;13.314;2023-09-08T07:19:25;12.97;;;8.87;;
68803;SDS011;55787;52.678;13.314;2023-09-08T07:21:53;15.10;;;9.43;;
68803;SDS011;55787;52.678;13.314;2023-09-08T07:24:19;12.48;;;8.38;;
68803;SDS011;55787;52.678;13.314;2023-09-08T07:26:46;14.45;;;8.48;;
68803;SDS011;55787;52.678;13.314;2023-09-08T07:29:13;14.07;;;8.65;;
68803;SDS011;55787;52.678;13.314;2023-09-08T07:31:40;12.90;;;8.07;;
68803;SDS011;55787;52.678;13.314;2023-09-08T07:34:06;13.00;;;8.48;;
68803;SDS011;55787;52.678;13.314;2023-09-08T07:36:35;14.95;;;9.55;;
68803;SDS011;55787;52.678;13.314;2023-09-08T07:39:03;14.50;;;9.07;;
68803;SDS011;55787;52.678;13.314;2023-09-08T07:41:29;14.70;;;8.93;;
68803;SDS011;55787;52.678;13.314;2023-09-08T07:43:56;13.97;;;9.10;;
68803;SDS011;55787;52.678;13.314;2023-09-08T07:46:23;15.40;;;9.60;;
68803;SDS011;55787;52.678;13.314;2023-09-08T07:48:50;13.48;;;9.25;;
68803;SDS011;55787;52.678;13.314;2023-09-08T07:51:16;13.70;;;8.93;;
68803;SDS011;55787;52.678;13.314;2023-09-08T07:53:43;14.80;;;8.80;;
68803;SDS011;55787;52.678;13.314;2023-09-08T07:56:10;12.60;;;9.20;;
68803;SDS011;55787;52.678;13.314;2023-09-08T07:58:36;14.68;;;8.95;;
68803;SDS011;55787;52.678;13.314;2023-09-08T08:01:05;19.15;;;13.27;;
68803;SDS011;55787;52.678;13.314;2023-09-08T08:03:32;14.02;;;9.45;;
68803;SDS011;55787;52.678;13.314;2023-09-08T08:06:01;14.02;;;8.70;;
68803;SDS011;55787;52.678;13.314;2023-09-08T08:08:28;13.10;;;8.77;;
68803;SDS011;55787;52.678;13.314;2023-09-08T08:10:55;13.30;;;9.23;;
68803;SDS011;55787;52.678;13.314;2023-09-08T08:13:21;13.48;;;9.70;;
68803;SDS011;55787;52.678;13.314;2023-09-08T08:15:48;11.68;;;8.55;;
68803;SDS011;55787;52.678;13.314;2023-09-08T08:18:16;12.73;;;8.30;;
68803;SDS011;55787;52.678;13.314;2023-09-08T08:20:43;13.53;;;8.60;;
68803;SDS011;55787;52.678;13.314;2023-09-08T08:23:10;11.93;;;8.40;;
68803;SDS011;55787;52.678;13.314;2023-09-08T08:25:37;12.75;;;8.85;;
68803;SDS011;55787;52.678;13.314;2023-09-08T08:28:03;14.63;;;9.13;;
68803;SDS011;55787;52.678;13.314;2023-09-08T08:30:30;12.82;;;8.63;;
68803;SDS011;55787;52.678;13.314;2023-09-08T08:32:57;12.77;;;8.83;;
68803;SDS011;55787;52.678;13.314;2023-09-08T08:35:23;12.10;;;9.10;;
68803;SDS011;55787;52.678;13.314;2023-09-08T08:37:50;12.43;;;8.93;;
68803;SDS011;55787;52.678;13.314;2023-09-08T08:40:17;13.93;;;8.90;;
68803;SDS011;55787;52.678;13.314;2023-09-08T08:42:44;13.52;;;8.95;;
68803;SDS011;55787;52.678;13.314;2023-09-08T08:45:11;13.67;;;8.87;;
68803;SDS011;55787;52.678;13.314;2023-09-08T08:47:38;14.80;;;8.95;;
68803;SDS011;55787;52.678;13.314;2023-09-08T08:50:06;12.82;;;8.70;;
68803;SDS011;55787;52.678;13.314;2023-09-08T08:52:36;11.73;;;8.55;;
68803;SDS011;55787;52.678;13.314;2023-09-08T08:55:04;15.18;;;9.90;;
68803;SDS011;55787;52.678;13.314;2023-09-08T08:57:31;16.73;;;10.93;;
68803;SDS011;55787;52.678;13.314;2023-09-08T08:59:59;10.65;;;8.63;;
68803;SDS011;55787;52.678;13.314;2023-09-08T09:02:26;13.32;;;9.82;;
68803;SDS011;55787;52.678;13.314;2023-09-08T09:04:54;13.45;;;8.43;;
68803;SDS011;55787;52.678;13.314;2023-09-08T09:07:21;11.43;;;8.75;;
68803;SDS011;55787;52.678;13.314;2023-09-08T09:09:50;12.57;;;9.33;;
68803;SDS011;55787;52.678;13.314;2023-09-08T09:12:18;11.35;;;8.88;;
68803;SDS011;55787;52.678;13.314;2023-09-08T09:14:45;12.02;;;9.10;;
68803;SDS011;55787;52.678;13.314;2023-09-08T09:17:16;13.30;;;9.27;;
68803;SDS011;55787;52.678;13.314;2023-09-08T09:19:43;11.48;;;8.50;;
68803;SDS011;55787;52.678;13.314;2023-09-08T09:22:10;10.93;;;8.83;;
68803;SDS011;55787;52.678;13.314;2023-09-08T09:24:37;11.07;;;8.60;;
68803;SDS011;55787;52.678;13.314;2023-09-08T09:27:13;11.43;;;9.68;;
68803;SDS011;55787;52.678;13.314;2023-09-08T09:29:46;11.77;;;9.27;;
68803;SDS011;55787;52.678;13.314;2023-09-08T09:32:14;12.82;;;8.70;;
68803;SDS011;55787;52.678;13.314;2023-09-08T09:34:49;13.77;;;8.93;;
68803;SDS011;55787;52.678;13.314;2023-09-08T09:37:17;13.80;;;8.98;;
68803;SDS011;55787;52.678;13.314;2023-09-08T09:39:48;13.65;;;8.88;;
68803;SDS011;55787;52.678;13.314;2023-09-08T09:42:19;16.58;;;8.45;;
68803;SDS011;55787;52.678;13.314;2023-09-08T09:44:47;12.15;;;9.20;;
68803;SDS011;55787;52.678;13.314;2023-09-08T09:47:15;10.77;;;8.23;;
68803;SDS011;55787;52.678;13.314;2023-09-08T09:49:43;12.07;;;9.00;;
68803;SDS011;55787;52.678;13.314;2023-09-08T09:52:13;12.50;;;9.13;;
68803;SDS011;55787;52.678;13.314;2023-09-08T09:54:46;11.93;;;8.70;;
68803;SDS011;55787;52.678;13.314;2023-09-08T09:57:17;11.52;;;9.98;;
68803;SDS011;55787;52.678;13.314;2023-09-08T09:59:47;12.30;;;8.87;;
68803;SDS011;55787;52.678;13.314;2023-09-08T10:02:17;11.70;;;8.80;;
68803;SDS011;55787;52.678;13.314;2023-09-08T10:04:49;12.48;;;9.43;;
68803;SDS011;55787;52.678;13.314;2023-09-08T10:07:16;12.48;;;8.98;;
68803;SDS011;55787;52.678;13.314;2023-09-08T10:09:44;10.48;;;8.70;;
68803;SDS011;55787;52.678;13.314;2023-09-08T10:12:12;12.37;;;9.00;;
68803;SDS011;55787;52.678;13.314;2023-09-08T10:14:42;12.27;;;8.90;;
68803;SDS011;55787;52.678;13.314;2023-09-08T10:17:12;11.95;;;9.50;;
68803;SDS011;55787;52.678;13.314;2023-09-08T10:19:45;11.27;;;9.20;;
68803;SDS011;55787;52.678;13.314;2023-09-08T10:22:19;12.98;;;8.73;;
68803;SDS011;55787;52.678;13.314;2023-09-08T10:24:47;10.57;;;8.90;;
68803;SDS011;55787;52.678;13.314;2023-09-08T10:27:16;11.30;;;9.18;;
68803;SDS011;55787;52.678;13.314;2023-09-08T10:29:46;11.73;;;9.40;;
68803;SDS011;55787;52.678;13.314;2023-09-08T10:32:13;12.80;;;9.50;;
68803;SDS011;55787;52.678;13.314;2023-09-08T10:34:42;11.98;;;10.18;;
68803;SDS011;55787;52.678;13.314;2023-09-08T10:37:23;11.63;;;9.20;;
68803;SDS011;55787;52.678;13.314;2023-09-08T10:39:52;11.25;;;9.10;;
68803;SDS011;55787;52.678;13.314;2023-09-08T10:47:22;10.93;;;9.13;;
68803;SDS011;55787;52.678;13.314;2023-09-08T10:49:50;12.10;;;8.63;;
68803;SDS011;55787;52.678;13.314;2023-09-08T10:52:23;11.63;;;9.00;;
68803;SDS011;55787;52.678;13.314;2023-09-08T10:54:52;10.23;;;8.95;;
68803;SDS011;55787;52.678;13.314;2023-09-08T10:57:23;10.35;;;8.90;;
68803;SDS011;55787;52.678;13.314;2023-09-08T10:59:51;10.35;;;8.82;;
68803;SDS011;55787;52.678;13.314;2023-09-08T11:05:21;11.60;;;8.60;;
68803;SDS011;55787;52.678;13.314;2023-09-08T11:07:48;9.93;;;8.82;;
68803;SDS011;55787;52.678;13.314;2023-09-08T11:10:19;11.00;;;9.77;;
68803;SDS011;55787;52.678;13.314;2023-09-08T11:12:46;12.30;;;8.98;;
68803;SDS011;55787;52.678;13.314;2023-09-08T11:15:15;10.90;;;8.20;;
68803;SDS011;55787;52.678;13.314;2023-09-08T11:17:41;9.82;;;8.18;;
68803;SDS011;55787;52.678;13.314;2023-09-08T11:20:09;10.50;;;8.50;;
68803;SDS011;55787;52.678;13.314;2023-09-08T11:22:37;11.10;;;8.85;;
68803;SDS011;55787;52.678;13.314;2023-09-08T11:25:06;14.15;;;10.07;;
68803;SDS011;55787;52.678;13.314;2023-09-08T11:27:34;9.43;;;8.30;;
68803;SDS011;55787;52.678;13.314;2023-09-08T11:30:01;12.27;;;8.88;;
68803;SDS011;55787;52.678;13.314;2023-09-08T11:32:31;11.88;;;8.85;;
68803;SDS011;55787;52.678;13.314;2023-09-08T11:35:05;11.65;;;8.20;;
68803;SDS011;55787;52.678;13.314;2023-09-08T11:37:39;12.55;;;8.70;;
68803;SDS011;55787;52.678;13.314;2023-09-08T11:40:08;11.07;;;8.13;;
68803;SDS011;55787;52.678;13.314;2023-09-08T11:42:40;10.02;;;7.93;;
68803;SDS011;55787;52.678;13.314;2023-09-08T11:45:11;10.43;;;8.15;;
68803;SDS011;55787;52.678;13.314;2023-09-08T11:47:42;10.60;;;7.82;;
68803;SDS011;55787;52.678;13.314;2023-09-08T11:50:10;10.90;;;8.07;;
68803;SDS011;55787;52.678;13.314;2023-09-08T11:52:44;10.00;;;7.73;;
68803;SDS011;55787;52.678;13.314;2023-09-08T11:55:12;10.38;;;7.53;;
68803;SDS011;55787;52.678;13.314;2023-09-08T11:57:40;9.85;;;7.30;;
68803;SDS011;55787;52.678;13.314;2023-09-08T12:00:08;10.23;;;7.10;;
68803;SDS011;55787;52.678;13.314;2023-09-08T12:02:38;11.20;;;6.78;;
68803;SDS011;55787;52.678;13.314;2023-09-08T12:05:05;11.03;;;7.50;;
68803;SDS011;55787;52.678;13.314;2023-09-08T12:07:37;10.68;;;7.13;;
68803;SDS011;55787;52.678;13.314;2023-09-08T12:10:09;12.00;;;7.72;;
68803;SDS011;55787;52.678;13.314;2023-09-08T12:12:46;11.52;;;7.60;;
68803;SDS011;55787;52.678;13.314;2023-09-08T12:15:31;11.68;;;7.00;;
68803;SDS011;55787;52.678;13.314;2023-09-08T12:18:01;10.73;;;6.93;;
68803;SDS011;55787;52.678;13.314;2023-09-08T12:20:30;11.77;;;6.72;;
68803;SDS011;55787;52.678;13.314;2023-09-08T12:22:58;10.23;;;7.00;;
68803;SDS011;55787;52.678;13.314;2023-09-08T12:25:28;9.77;;;7.22;;
68803;SDS011;55787;52.678;13.314;2023-09-08T12:27:54;10.48;;;7.38;;
68803;SDS011;55787;52.678;13.314;2023-09-08T12:30:22;10.17;;;7.00;;
68803;SDS011;55787;52.678;13.314;2023-09-08T12:32:56;10.55;;;7.25;;
68803;SDS011;55787;52.678;13.314;2023-09-08T12:35:25;10.07;;;7.18;;
68803;SDS011;55787;52.678;13.314;2023-09-08T12:38:01;12.30;;;6.63;;
68803;SDS011;55787;52.678;13.314;2023-09-08T12:40:30;10.05;;;6.90;;
68803;SDS011;55787;52.678;13.314;2023-09-08T12:43:00;10.43;;;7.37;;
68803;SDS011;55787;52.678;13.314;2023-09-08T12:45:33;10.48;;;6.70;;
68803;SDS011;55787;52.678;13.314;2023-09-08T12:48:00;9.18;;;6.85;;
68803;SDS011;55787;52.678;13.314;2023-09-08T12:50:30;9.68;;;6.88;;
68803;SDS011;55787;52.678;13.314;2023-09-08T12:52:57;9.95;;;6.78;;
68803;SDS011;55787;52.678;13.314;2023-09-08T12:55:23;9.17;;;6.77;;
68803;SDS011;55787;52.678;13.314;2023-09-08T12:57:50;9.88;;;7.13;;
68803;SDS011;55787;52.678;13.314;2023-09-08T13:00:23;10.45;;;7.18;;
68803;SDS011;55787;52.678;13.314;2023-09-08T13:02:51;9.80;;;6.80;;
68803;SDS011;55787;52.678;13.314;2023-09-08T13:05:18;12.18;;;7.25;;
68803;SDS011;55787;52.678;13.314;2023-09-08T13:07:45;9.77;;;6.50;;
68803;SDS011;55787;52.678;13.314;2023-09-08T13:10:11;9.90;;;7.28;;
68803;SDS011;55787;52.678;13.314;2023-09-08T13:12:39;10.65;;;7.70;;
68803;SDS011;55787;52.678;13.314;2023-09-08T13:15:06;11.48;;;7.28;;
68803;SDS011;55787;52.678;13.314;2023-09-08T13:17:33;9.75;;;6.72;;
68803;SDS011;55787;52.678;13.314;2023-09-08T13:19:59;10.30;;;6.97;;
68803;SDS011;55787;52.678;13.314;2023-09-08T13:22:26;10.82;;;6.45;;
68803;SDS011;55787;52.678;13.314;2023-09-08T13:24:52;10.23;;;7.47;;
68803;SDS011;55787;52.678;13.314;2023-09-08T13:27:19;10.13;;;7.10;;
68803;SDS011;55787;52.678;13.314;2023-09-08T13:29:45;9.10;;;6.63;;
68803;SDS011;55787;52.678;13.314;2023-09-08T13:32:12;10.67;;;7.43;;
68803;SDS011;55787;52.678;13.314;2023-09-08T13:34:39;11.27;;;7.10;;
68803;SDS011;55787;52.678;13.314;2023-09-08T13:37:06;11.80;;;7.07;;
68803;SDS011;55787;52.678;13.314;2023-09-08T13:39:32;9.00;;;6.45;;
68803;SDS011;55787;52.678;13.314;2023-09-08T13:41:59;9.65;;;6.50;;
68803;SDS011;55787;52.678;13.314;2023-09-08T13:44:27;9.53;;;6.57;;
68803;SDS011;55787;52.678;13.314;2023-09-08T13:46:54;10.90;;;6.85;;
68803;SDS011;55787;52.678;13.314;2023-09-08T13:49:22;9.77;;;6.35;;
68803;SDS011;55787;52.678;13.314;2023-09-08T13:51:52;11.52;;;6.88;;
68803;SDS011;55787;52.678;13.314;2023-09-08T13:54:22;11.90;;;6.40;;
68803;SDS011;55787;52.678;13.314;2023-09-08T13:56:58;10.57;;;6.43;;
68803;SDS011;55787;52.678;13.314;2023-09-08T13:59:34;10.27;;;7.00;;
68803;SDS011;55787;52.678;13.314;2023-09-08T14:02:02;10.48;;;6.60;;
68803;SDS011;55787;52.678;13.314;2023-09-08T14:04:50;11.05;;;6.35;;
68803;SDS011;55787;52.678;13.314;2023-09-08T14:07:19;8.80;;;6.15;;
68803;SDS011;55787;52.678;13.314;2023-09-08T14:09:53;9.50;;;5.93;;
68803;SDS011;55787;52.678;13.314;2023-09-08T14:12:31;11.90;;;6.35;;
68803;SDS011;55787;52.678;13.314;2023-09-08T14:15:01;9.55;;;6.47;;
68803;SDS011;55787;52.678;13.314;2023-09-08T14:17:28;10.20;;;6.78;;
68803;SDS011;55787;52.678;13.314;2023-09-08T14:19:55;11.50;;;6.53;;
68803;SDS011;55787;52.678;13.314;2023-09-08T14:22:22;10.83;;;6.10;;
68803;SDS011;55787;52.678;13.314;2023-09-08T14:24:48;10.43;;;6.85;;
68803;SDS011;55787;52.678;13.314;2023-09-08T14:27:15;11.05;;;7.50;;
68803;SDS011;55787;52.678;13.314;2023-09-08T14:29:41;12.45;;;6.55;;
68803;SDS011;55787;52.678;13.314;2023-09-08T14:32:08;10.20;;;6.60;;
68803;SDS011;55787;52.678;13.314;2023-09-08T14:34:35;10.87;;;6.47;;
68803;SDS011;55787;52.678;13.314;2023-09-08T14:37:01;12.68;;;6.93;;
68803;SDS011;55787;52.678;13.314;2023-09-08T14:39:30;10.50;;;6.93;;
68803;SDS011;55787;52.678;13.314;2023-09-08T14:41:57;9.43;;;6.63;;
68803;SDS011;55787;52.678;13.314;2023-09-08T14:44:24;11.13;;;6.00;;
68803;SDS011;55787;52.678;13.314;2023-09-08T14:46:50;10.13;;;6.77;;
68803;SDS011;55787;52.678;13.314;2023-09-08T14:49:18;10.05;;;6.20;;
68803;SDS011;55787;52.678;13.314;2023-09-08T14:51:44;10.13;;;5.68;;